Time;durP1;ratioP1;P1;durP2;ratioP2;P2;SDS_P1;SDS_P2;PMS_P1;PMS_P2;Temp;Humidity;BMP_temperature;BMP_pressure;BME280_temperature;BME280_humidity;BME280_pressure;Samples;Min_cycle;Max_cycle;Signal;HPM_P1;HPM_P2
2023/07/02 00:02:04;;;;;;;11.18;7.82;;;15.10;99.90;;;;;;7379956;19;20028;-61
2023/07/02 00:04:31;;;;;;;10.98;8.27;;;15.10;99.90;;;;;;7378594;19;20014;-62
2023/07/02 00:06:57;;;;;;;9.57;7.60;;;15.00;99.90;;;;;;7379013;19;20081;-62
2023/07/02 00:09:23;;;;;;;14.20;8.25;;;15.00;99.90;;;;;;7373532;19;20048;-62
2023/07/02 00:11:49;;;;;;;8.98;7.38;;;15.00;99.90;;;;;;7380590;19;20984;-62
2023/07/02 00:14:16;;;;;;;10.60;7.22;;;15.00;99.90;;;;;;7378308;19;20029;-62
2023/07/02 00:16:45;;;;;;;12.18;6.60;;;15.00;99.90;;;;;;7377478;19;20077;-63
2023/07/02 00:19:15;;;;;;;12.75;6.95;;;15.10;99.90;;;;;;7377501;19;20668;-62
2023/07/02 00:21:41;;;;;;;10.60;7.10;;;15.10;99.90;;;;;;7372238;19;20134;-61
2023/07/02 00:24:11;;;;;;;12.25;8.02;;;15.10;99.90;;;;;;7378732;19;21097;-61
2023/07/02 00:26:39;;;;;;;11.10;6.97;;;15.20;99.90;;;;;;7379772;19;20045;-72
2023/07/02 00:29:07;;;;;;;11.98;7.20;;;15.20;99.90;;;;;;7376423;19;20630;-71
2023/07/02 00:31:34;;;;;;;14.98;7.45;;;15.20;99.90;;;;;;7379988;19;20022;-73
2023/07/02 00:34:01;;;;;;;11.88;6.82;;;15.20;99.90;;;;;;7377893;19;20630;-73
2023/07/02 00:36:30;;;;;;;12.68;6.43;;;15.30;99.90;;;;;;7379043;19;20018;-72
2023/07/02 00:38:58;;;;;;;15.75;6.85;;;15.20;99.90;;;;;;7379256;19;20730;-61
2023/07/02 00:41:24;;;;;;;12.75;7.32;;;15.20;99.90;;;;;;7373475;19;20027;-61
2023/07/02 00:43:54;;;;;;;18.23;7.22;;;15.20;99.90;;;;;;7374988;19;20026;-61
2023/07/02 00:46:24;;;;;;;14.07;7.55;;;15.10;99.90;;;;;;7378622;19;20010;-62
2023/07/02 00:48:55;;;;;;;12.67;7.57;;;15.10;99.90;;;;;;7378784;19;20022;-72
2023/07/02 00:51:25;;;;;;;12.63;7.68;;;15.00;99.90;;;;;;7379696;19;20294;-72
2023/07/02 00:53:54;;;;;;;13.75;7.45;;;15.00;99.90;;;;;;7374751;19;20031;-72
2023/07/02 00:56:22;;;;;;;15.82;7.70;;;14.90;99.90;;;;;;7374167;19;20023;-61
2023/07/02 00:58:50;;;;;;;15.18;7.75;;;14.80;99.90;;;;;;7377383;19;20450;-61
2023/07/02 01:01:19;;;;;;;18.63;9.27;;;14.80;99.90;;;;;;7374501;19;20025;-62
2023/07/02 01:03:59;;;;;;;15.10;7.63;;;14.70;99.90;;;;;;7370347;19;20019;-62
2023/07/02 01:06:31;;;;;;;17.02;7.30;;;14.60;99.90;;;;;;7375195;19;20022;-61
2023/07/02 01:08:59;;;;;;;19.85;8.25;;;14.50;99.90;;;;;;7368787;19;20772;-72
2023/07/02 01:11:33;;;;;;;14.40;8.02;;;14.40;99.90;;;;;;7377585;19;20493;-72
2023/07/02 01:14:28;;;;;;;17.73;7.63;;;14.40;99.90;;;;;;7376852;19;20025;-71
2023/07/02 01:16:57;;;;;;;16.60;9.73;;;14.30;99.90;;;;;;7367595;19;20023;-72
2023/07/02 01:19:41;;;;;;;22.13;9.18;;;14.20;99.90;;;;;;7376347;19;20018;-71
2023/07/02 01:22:08;;;;;;;21.75;9.18;;;14.10;99.90;;;;;;7374709;19;20030;-72
2023/07/02 01:24:38;;;;;;;18.10;8.38;;;14.10;99.90;;;;;;7364269;19;20018;-72
2023/07/02 01:27:05;;;;;;;15.05;8.40;;;14.00;99.90;;;;;;7372912;19;20014;-73
2023/07/02 01:29:31;;;;;;;17.05;9.27;;;14.00;99.90;;;;;;7375247;19;20018;-72
2023/07/02 01:31:58;;;;;;;22.80;9.32;;;13.90;99.90;;;;;;7377454;19;20821;-73
2023/07/02 01:34:24;;;;;;;18.25;8.70;;;13.80;99.90;;;;;;7375494;19;20030;-62
2023/07/02 01:36:50;;;;;;;20.77;8.82;;;13.80;99.90;;;;;;7370793;19;20015;-62
2023/07/02 01:39:17;;;;;;;15.23;8.55;;;13.70;99.90;;;;;;7367035;19;20018;-62
2023/07/02 01:41:43;;;;;;;18.77;8.40;;;13.70;99.90;;;;;;7372957;19;20022;-62
2023/07/02 01:44:10;;;;;;;16.40;9.35;;;13.60;99.90;;;;;;7374551;19;20026;-61
2023/07/02 01:46:36;;;;;;;19.02;9.65;;;13.50;99.90;;;;;;7378342;19;20022;-62
2023/07/02 01:49:03;;;;;;;17.20;9.20;;;13.50;99.90;;;;;;7373833;19;20137;-61
2023/07/02 01:51:29;;;;;;;17.45;8.95;;;13.40;99.90;;;;;;7374249;19;20011;-61
2023/07/02 01:53:56;;;;;;;19.33;8.73;;;13.30;99.90;;;;;;7375938;19;20022;-61
2023/07/02 01:56:22;;;;;;;15.88;9.48;;;13.30;99.90;;;;;;7373411;19;20022;-62
2023/07/02 01:58:48;;;;;;;21.60;9.15;;;13.30;99.90;;;;;;7366985;19;20110;-61
2023/07/02 02:01:14;;;;;;;21.27;9.38;;;13.20;99.90;;;;;;7372874;19;20018;-61
2023/07/02 02:03:41;;;;;;;21.27;8.93;;;13.20;99.90;;;;;;7375132;19;20023;-72
2023/07/02 02:06:08;;;;;;;20.08;9.98;;;13.20;99.90;;;;;;7378251;19;20022;-73
2023/07/02 02:08:34;;;;;;;21.67;9.63;;;13.10;99.90;;;;;;7381386;19;20028;-72
2023/07/02 02:11:01;;;;;;;23.33;10.02;;;13.10;99.90;;;;;;7385701;19;20014;-72
2023/07/02 02:13:27;;;;;;;20.35;9.73;;;13.00;99.90;;;;;;7382392;19;20018;-72
2023/07/02 02:15:54;;;;;;;22.02;10.43;;;13.00;99.90;;;;;;7383074;19;20598;-74
2023/07/02 02:18:21;;;;;;;22.38;9.73;;;12.90;99.90;;;;;;7385339;19;20471;-72
2023/07/02 02:20:47;;;;;;;19.25;10.50;;;13.00;99.90;;;;;;7380511;19;20022;-72
2023/07/02 02:23:13;;;;;;;22.90;9.45;;;13.00;99.90;;;;;;7373732;19;20112;-72
2023/07/02 02:25:39;;;;;;;23.35;9.95;;;13.00;99.90;;;;;;7372119;19;20027;-72
2023/07/02 02:28:05;;;;;;;19.88;9.95;;;13.00;99.90;;;;;;7380281;19;20030;-72
2023/07/02 02:30:32;;;;;;;20.10;10.80;;;13.00;99.90;;;;;;7378897;19;20042;-72
2023/07/02 02:32:58;;;;;;;21.10;10.25;;;13.00;99.90;;;;;;7382860;19;20016;-74
2023/07/02 02:35:26;;;;;;;26.55;11.07;;;12.90;99.90;;;;;;7372953;19;20026;-72
2023/07/02 02:37:52;;;;;;;28.05;11.40;;;12.90;99.90;;;;;;7381114;19;20389;-71
2023/07/02 02:40:19;;;;;;;22.95;11.10;;;12.90;99.90;;;;;;7376217;19;20078;-72
2023/07/02 02:42:45;;;;;;;28.38;11.48;;;12.80;99.90;;;;;;7381611;19;20015;-72
2023/07/02 02:45:12;;;;;;;24.45;11.27;;;12.90;99.90;;;;;;7376394;19;20022;-72
2023/07/02 02:47:38;;;;;;;28.73;11.00;;;12.80;99.90;;;;;;7381135;19;20010;-72
2023/07/02 02:50:06;;;;;;;20.25;10.48;;;12.80;99.90;;;;;;7373612;19;20023;-72
2023/07/02 02:52:32;;;;;;;28.10;10.52;;;12.80;99.90;;;;;;7377349;19;20018;-72
2023/07/02 02:54:59;;;;;;;22.30;11.57;;;12.80;99.90;;;;;;7380552;19;20020;-72
2023/07/02 02:57:25;;;;;;;30.35;11.35;;;12.80;99.90;;;;;;7382187;19;20085;-72
2023/07/02 02:59:52;;;;;;;25.83;10.70;;;12.80;99.90;;;;;;7382034;19;20535;-61
2023/07/02 03:02:18;;;;;;;23.02;10.73;;;12.80;99.90;;;;;;7381114;19;20010;-62
2023/07/02 03:04:45;;;;;;;22.20;10.32;;;12.80;99.90;;;;;;7377486;19;20019;-60
2023/07/02 03:07:11;;;;;;;25.40;10.63;;;12.80;99.90;;;;;;7382797;19;20026;-60
2023/07/02 03:09:37;;;;;;;28.80;10.63;;;12.90;99.90;;;;;;7372380;19;20107;-65
2023/07/02 03:12:05;;;;;;;21.92;11.05;;;12.90;99.90;;;;;;7382016;19;20018;-63
2023/07/02 03:14:31;;;;;;;23.55;11.13;;;12.90;99.90;;;;;;7381350;19;20520;-60
2023/07/02 03:16:58;;;;;;;22.48;10.35;;;12.80;99.90;;;;;;7381611;19;20029;-61
2023/07/02 03:19:25;;;;;;;20.58;10.48;;;12.80;99.90;;;;;;7381738;19;20018;-61
2023/07/02 03:21:51;;;;;;;23.67;10.52;;;12.90;99.90;;;;;;7380535;19;20110;-61
2023/07/02 03:24:18;;;;;;;23.20;10.68;;;12.80;99.90;;;;;;7379811;19;20081;-71
2023/07/02 03:26:44;;;;;;;25.45;12.18;;;12.90;99.90;;;;;;7382058;19;20025;-72
2023/07/02 03:29:11;;;;;;;28.55;11.15;;;12.90;99.90;;;;;;7379644;19;20812;-73
2023/07/02 03:31:38;;;;;;;28.00;11.70;;;12.90;99.90;;;;;;7383810;19;20047;-72
2023/07/02 03:34:08;;;;;;;24.20;10.93;;;12.90;99.90;;;;;;7377585;19;20014;-72
2023/07/02 03:36:35;;;;;;;30.77;11.02;;;12.90;99.90;;;;;;7380367;19;20049;-71
2023/07/02 03:39:02;;;;;;;22.25;10.45;;;12.90;99.90;;;;;;7381107;19;20029;-72
2023/07/02 03:41:29;;;;;;;28.02;12.38;;;12.90;99.90;;;;;;7374763;19;20053;-71
2023/07/02 03:43:55;;;;;;;30.48;11.35;;;12.90;99.90;;;;;;7376079;19;20026;-72
2023/07/02 03:46:21;;;;;;;26.60;11.80;;;12.90;99.90;;;;;;7377321;19;20759;-60
2023/07/02 03:48:47;;;;;;;29.85;12.02;;;12.90;99.90;;;;;;7377689;19;20030;-62
2023/07/02 03:51:15;;;;;;;27.10;12.23;;;12.80;99.90;;;;;;7377372;19;20452;-71
2023/07/02 03:53:42;;;;;;;27.27;11.20;;;12.90;99.90;;;;;;7377229;19;20022;-71
2023/07/02 03:56:08;;;;;;;25.42;10.68;;;12.80;99.90;;;;;;7378221;19;20051;-72
2023/07/02 03:58:34;;;;;;;22.25;10.25;;;12.80;99.90;;;;;;7366681;19;20039;-73
2023/07/02 04:01:00;;;;;;;24.65;11.23;;;12.80;99.90;;;;;;7378053;19;20048;-73
2023/07/02 04:03:27;;;;;;;25.50;10.57;;;12.80;99.90;;;;;;7376174;19;20014;-61
2023/07/02 04:05:53;;;;;;;30.48;10.73;;;12.80;99.90;;;;;;7378818;19;20086;-72
2023/07/02 04:08:24;;;;;;;23.08;10.85;;;12.90;99.90;;;;;;7377240;19;20466;-73
2023/07/02 04:10:51;;;;;;;22.13;11.07;;;12.90;99.90;;;;;;7380439;19;20449;-60
2023/07/02 04:13:17;;;;;;;23.90;10.38;;;12.90;99.90;;;;;;7365686;19;20022;-72
2023/07/02 04:15:43;;;;;;;22.17;11.02;;;12.90;99.90;;;;;;7368955;19;20019;-71
2023/07/02 04:18:09;;;;;;;26.10;10.30;;;12.90;99.90;;;;;;7375286;19;20041;-73
2023/07/02 04:20:38;;;;;;;26.55;11.95;;;13.00;99.90;;;;;;7375997;19;20039;-72
2023/07/02 04:23:05;;;;;;;22.83;11.52;;;13.00;99.90;;;;;;7377313;19;20015;-73
2023/07/02 04:25:31;;;;;;;24.77;10.35;;;13.10;99.90;;;;;;7376436;19;20022;-72
2023/07/02 04:27:58;;;;;;;30.52;12.07;;;13.10;99.90;;;;;;7377030;19;20043;-72
2023/07/02 04:30:25;;;;;;;22.15;10.57;;;13.30;99.90;;;;;;7377614;19;20023;-72
2023/07/02 04:32:52;;;;;;;25.63;11.32;;;13.40;99.90;;;;;;7374904;19;20078;-73
2023/07/02 04:35:18;;;;;;;24.98;11.32;;;13.60;99.90;;;;;;7372888;19;20018;-73
2023/07/02 04:37:45;;;;;;;23.52;10.88;;;13.70;99.90;;;;;;7379403;19;20022;-73
2023/07/02 04:40:11;;;;;;;28.33;10.82;;;13.80;99.90;;;;;;7377830;19;20343;-72
2023/07/02 04:42:38;;;;;;;29.27;10.85;;;13.90;99.90;;;;;;7375775;19;20078;-72
2023/07/02 04:45:05;;;;;;;25.50;11.35;;;13.90;99.90;;;;;;7376603;19;20029;-72
2023/07/02 04:47:32;;;;;;;27.27;10.77;;;13.90;99.90;;;;;;7377590;19;20457;-72
2023/07/02 04:49:59;;;;;;;23.67;10.00;;;14.00;99.90;;;;;;7375763;19;20042;-72
2023/07/02 04:52:25;;;;;;;24.23;10.35;;;14.00;99.90;;;;;;7377696;19;20026;-73
2023/07/02 04:54:51;;;;;;;22.63;10.68;;;14.00;99.90;;;;;;7377034;19;20805;-73
2023/07/02 04:57:17;;;;;;;26.52;9.98;;;13.90;99.90;;;;;;7367492;19;20816;-72
2023/07/02 04:59:44;;;;;;;21.63;10.40;;;13.90;99.90;;;;;;7373281;19;20082;-61
2023/07/02 05:02:10;;;;;;;22.30;11.05;;;13.80;99.90;;;;;;7374236;19;20370;-61
2023/07/02 05:04:37;;;;;;;24.58;11.00;;;13.80;99.90;;;;;;7377791;19;20028;-61
2023/07/02 05:07:04;;;;;;;25.30;10.18;;;13.90;99.90;;;;;;7373235;19;20007;-61
2023/07/02 05:09:31;;;;;;;29.95;11.23;;;14.00;99.90;;;;;;7379427;19;20014;-61
2023/07/02 05:11:58;;;;;;;24.23;10.43;;;14.10;99.90;;;;;;7378048;19;20021;-62
2023/07/02 05:14:24;;;;;;;25.02;11.30;;;14.40;99.90;;;;;;7378863;19;20130;-62
2023/07/02 05:16:50;;;;;;;23.40;10.73;;;14.80;99.90;;;;;;7377034;19;20029;-61
2023/07/02 05:19:16;;;;;;;25.38;10.20;;;15.10;99.90;;;;;;7380365;19;20022;-61
2023/07/02 05:21:43;;;;;;;22.60;9.93;;;15.30;99.90;;;;;;7366653;19;20041;-62
2023/07/02 05:24:09;;;;;;;21.77;9.23;;;15.60;99.90;;;;;;7372467;19;20010;-62
2023/07/02 05:26:35;;;;;;;27.08;9.68;;;15.70;99.90;;;;;;7376439;19;20045;-63
2023/07/02 05:29:02;;;;;;;21.67;9.18;;;15.90;99.90;;;;;;7376898;19;20033;-61
2023/07/02 05:31:28;;;;;;;25.85;10.48;;;16.00;99.90;;;;;;7376830;19;20620;-74
2023/07/02 05:33:54;;;;;;;21.65;10.57;;;16.10;99.90;;;;;;7364727;19;20459;-73
2023/07/02 05:36:21;;;;;;;21.65;9.30;;;16.10;99.90;;;;;;7367686;19;20387;-71
2023/07/02 05:38:47;;;;;;;17.92;8.50;;;16.50;99.90;;;;;;7373493;19;20018;-69
2023/07/02 05:41:23;;;;;;;22.45;9.00;;;16.60;99.90;;;;;;7379372;19;20018;-70
2023/07/02 05:43:49;;;;;;;25.38;10.38;;;16.80;99.90;;;;;;7379319;19;20022;-70
2023/07/02 05:46:15;;;;;;;19.23;8.68;;;17.10;99.90;;;;;;7377221;19;20054;-70
2023/07/02 05:48:42;;;;;;;24.40;9.27;;;17.10;99.90;;;;;;7366674;19;20098;-70
2023/07/02 05:51:08;;;;;;;19.63;9.25;;;17.30;99.90;;;;;;7383542;19;20024;-70
2023/07/02 05:53:37;;;;;;;22.45;9.30;;;17.40;99.90;;;;;;7378050;19;20022;-70
2023/07/02 05:56:03;;;;;;;23.40;9.35;;;17.40;99.90;;;;;;7381711;19;20086;-70
2023/07/02 05:58:30;;;;;;;21.25;8.85;;;17.00;99.90;;;;;;7380919;19;20042;-69
2023/07/02 06:00:56;;;;;;;20.50;8.57;;;17.00;99.90;;;;;;7381817;19;20086;-70
2023/07/02 06:03:22;;;;;;;22.42;8.52;;;17.20;99.90;;;;;;7372288;19;20033;-69
2023/07/02 06:05:49;;;;;;;19.73;9.25;;;17.40;99.90;;;;;;7381093;19;20015;-70
2023/07/02 06:08:17;;;;;;;19.48;8.80;;;17.40;99.90;;;;;;7381745;19;20521;-67
2023/07/02 06:10:46;;;;;;;21.27;9.15;;;17.60;99.90;;;;;;7382438;19;20025;-61
2023/07/02 06:13:13;;;;;;;20.63;8.32;;;17.70;99.90;;;;;;7383354;19;20029;-61
2023/07/02 06:15:39;;;;;;;22.60;8.73;;;17.90;99.90;;;;;;7383035;19;20493;-61
2023/07/02 06:18:06;;;;;;;19.27;8.82;;;18.00;99.90;;;;;;7385841;19;20022;-61
2023/07/02 06:20:35;;;;;;;18.33;7.47;;;18.10;99.90;;;;;;7378811;19;21288;-61
2023/07/02 06:23:01;;;;;;;22.98;9.18;;;18.40;99.90;;;;;;7383678;19;20022;-59
2023/07/02 06:25:28;;;;;;;18.55;8.63;;;18.80;99.90;;;;;;7381485;19;20018;-60
2023/07/02 06:27:57;;;;;;;22.92;8.20;;;18.80;99.90;;;;;;7382634;19;20031;-71
2023/07/02 06:30:25;;;;;;;18.80;8.18;;;18.40;99.90;;;;;;7370956;19;20613;-71
2023/07/02 06:32:51;;;;;;;21.27;8.38;;;18.20;99.90;;;;;;7375501;19;20037;-60
2023/07/02 06:35:17;;;;;;;16.23;8.13;;;18.00;99.90;;;;;;7372044;19;20478;-71
2023/07/02 06:37:43;;;;;;;16.35;7.60;;;17.80;99.90;;;;;;7380739;19;20022;-70
2023/07/02 06:40:10;;;;;;;18.63;7.53;;;17.60;99.90;;;;;;7383869;19;20018;-71
2023/07/02 06:42:37;;;;;;;18.45;7.80;;;17.40;99.90;;;;;;7384779;19;20792;-70
2023/07/02 06:45:04;;;;;;;18.55;7.80;;;17.40;99.90;;;;;;7383859;19;20070;-71
2023/07/02 06:47:32;;;;;;;16.33;6.97;;;17.50;99.90;;;;;;7386126;19;20022;-67
2023/07/02 06:49:59;;;;;;;17.02;7.78;;;18.00;99.90;;;;;;7384156;19;20015;-60
2023/07/02 06:52:25;;;;;;;16.40;7.30;;;18.50;99.90;;;;;;7378598;19;20046;-60
2023/07/02 06:54:52;;;;;;;17.70;7.45;;;18.90;99.90;;;;;;7381915;19;20014;-63
2023/07/02 06:57:18;;;;;;;16.08;6.90;;;19.20;99.90;;;;;;7383059;19;20015;-74
2023/07/02 06:59:44;;;;;;;17.95;8.65;;;19.10;99.90;;;;;;7383875;19;20022;-71
2023/07/02 07:02:11;;;;;;;13.68;6.60;;;19.10;99.90;;;;;;7377166;19;20377;-61
2023/07/02 07:04:37;;;;;;;16.95;7.75;;;18.90;99.90;;;;;;7375121;19;21366;-61
2023/07/02 07:07:03;;;;;;;15.25;6.78;;;18.50;99.90;;;;;;7379990;19;20025;-61
2023/07/02 07:09:30;;;;;;;17.52;7.18;;;18.10;99.90;;;;;;7381330;19;20014;-61
2023/07/02 07:11:57;;;;;;;17.50;7.28;;;17.90;99.90;;;;;;7380397;19;20033;-61
2023/07/02 07:14:23;;;;;;;19.60;7.47;;;17.70;99.90;;;;;;7378541;19;20022;-60
2023/07/02 07:16:50;;;;;;;12.32;7.18;;;17.50;99.90;;;;;;7380839;19;20361;-61
2023/07/02 07:19:17;;;;;;;17.98;7.00;;;17.50;99.90;;;;;;7378403;19;21095;-61
2023/07/02 07:21:43;;;;;;;20.15;7.78;;;17.30;99.90;;;;;;7381099;19;20042;-68
2023/07/02 07:24:10;;;;;;;16.30;7.43;;;17.40;99.90;;;;;;7375002;19;21564;-68
2023/07/02 07:26:38;;;;;;;18.88;7.93;;;17.80;99.90;;;;;;7381000;19;20022;-60
2023/07/02 07:29:05;;;;;;;15.48;6.95;;;18.30;99.90;;;;;;7381460;19;20029;-64
2023/07/02 07:31:31;;;;;;;19.55;7.75;;;18.80;99.90;;;;;;7368049;19;20750;-62
2023/07/02 07:33:57;;;;;;;17.75;7.00;;;19.20;99.90;;;;;;7365521;19;20022;-62
2023/07/02 07:36:23;;;;;;;18.63;6.80;;;19.70;99.90;;;;;;7372155;19;20477;-69
2023/07/02 07:38:50;;;;;;;14.20;6.25;;;20.00;99.90;;;;;;7377612;19;20010;-63
2023/07/02 07:41:16;;;;;;;17.00;6.63;;;19.90;99.90;;;;;;7380230;19;20482;-63
2023/07/02 07:43:42;;;;;;;15.38;6.38;;;19.50;99.90;;;;;;7377498;19;20034;-62
2023/07/02 07:46:09;;;;;;;13.40;5.35;;;19.40;99.90;;;;;;7381423;19;20018;-67
2023/07/02 07:48:35;;;;;;;14.45;5.72;;;19.10;99.90;;;;;;7378554;19;20060;-69
2023/07/02 07:51:02;;;;;;;15.27;6.05;;;19.00;99.90;;;;;;7382850;19;20785;-69
2023/07/02 07:53:29;;;;;;;16.05;5.57;;;18.80;99.90;;;;;;7382133;19;20036;-69
2023/07/02 07:55:55;;;;;;;13.57;5.28;;;18.60;99.90;;;;;;7383130;19;20018;-60
2023/07/02 07:58:21;;;;;;;10.43;4.55;;;18.90;99.90;;;;;;7375081;19;20014;-61
2023/07/02 08:00:48;;;;;;;11.77;4.05;;;19.20;99.90;;;;;;7372564;19;20018;-61
2023/07/02 08:03:14;;;;;;;10.70;3.80;;;19.20;99.90;;;;;;7377683;19;20078;-61
2023/07/02 08:05:40;;;;;;;15.38;5.38;;;18.90;99.90;;;;;;7377101;19;20054;-61
2023/07/02 08:08:08;;;;;;;14.82;5.88;;;18.80;99.90;;;;;;7379698;19;20045;-61
2023/07/02 08:10:35;;;;;;;11.38;4.43;;;18.90;99.90;;;;;;7375749;19;20063;-61
2023/07/02 08:13:01;;;;;;;14.07;5.10;;;19.10;99.90;;;;;;7368772;19;20081;-61
2023/07/02 08:15:28;;;;;;;13.48;4.30;;;19.90;99.90;;;;;;7368912;19;20030;-61
2023/07/02 08:17:57;;;;;;;11.55;4.35;;;20.30;99.90;;;;;;7372816;19;20349;-61
2023/07/02 08:20:23;;;;;;;13.35;4.15;;;19.90;99.90;;;;;;7377740;19;20029;-62
2023/07/02 08:22:51;;;;;;;11.75;3.70;;;19.70;99.90;;;;;;7378821;19;20514;-70
2023/07/02 08:25:18;;;;;;;13.15;3.92;;;19.70;99.90;;;;;;7376469;19;20029;-70
2023/07/02 08:27:44;;;;;;;9.65;3.78;;;19.40;99.90;;;;;;7379993;19;20052;-70
2023/07/02 08:30:11;;;;;;;10.65;4.10;;;19.00;99.90;;;;;;7374485;19;20377;-70
2023/07/02 08:32:37;;;;;;;9.80;3.60;;;18.90;99.90;;;;;;7379600;19;20018;-70
2023/07/02 08:35:04;;;;;;;11.00;4.55;;;18.80;99.90;;;;;;7378487;19;20477;-70
2023/07/02 08:37:30;;;;;;;12.70;4.25;;;18.70;99.90;;;;;;7379442;19;20026;-71
2023/07/02 08:39:56;;;;;;;8.57;3.67;;;18.60;99.90;;;;;;7380113;19;20022;-71
2023/07/02 08:42:23;;;;;;;10.38;3.72;;;18.90;99.90;;;;;;7382565;19;20047;-72
2023/07/02 08:44:54;;;;;;;9.07;3.50;;;19.00;99.90;;;;;;7380622;19;20019;-71
2023/07/02 08:47:21;;;;;;;12.20;5.47;;;18.90;99.90;;;;;;7380536;19;20021;-71
2023/07/02 08:49:49;;;;;;;10.18;3.90;;;19.10;99.90;;;;;;7378802;19;20078;-71
2023/07/02 08:52:16;;;;;;;12.60;3.83;;;18.90;99.90;;;;;;7383643;19;20018;-71
2023/07/02 08:54:42;;;;;;;9.15;3.65;;;18.70;99.90;;;;;;7382164;19;20022;-71
2023/07/02 08:57:12;;;;;;;10.15;4.07;;;18.70;99.90;;;;;;7381165;19;20019;-71
2023/07/02 08:59:39;;;;;;;10.90;3.70;;;18.50;99.90;;;;;;7380115;19;20445;-71
2023/07/02 09:02:06;;;;;;;11.63;4.03;;;18.30;99.90;;;;;;7381160;19;20474;-71
2023/07/02 09:04:32;;;;;;;10.15;4.32;;;18.30;99.90;;;;;;7376862;19;20074;-62
2023/07/02 09:07:07;;;;;;;9.48;4.10;;;18.30;99.90;;;;;;7378514;19;20471;-63
2023/07/02 09:09:47;;;;;;;13.70;4.90;;;18.40;99.90;;;;;;7373684;19;20779;-62
2023/07/02 09:12:25;;;;;;;13.57;4.95;;;18.30;99.90;;;;;;7378776;19;20035;-62
2023/07/02 09:15:00;;;;;;;10.43;4.13;;;18.30;99.90;;;;;;7375694;19;20022;-62
2023/07/02 09:17:29;;;;;;;11.70;5.13;;;18.30;99.90;;;;;;7380809;19;20067;-62
2023/07/02 09:19:55;;;;;;;15.23;4.55;;;18.30;99.90;;;;;;7378500;19;20473;-61
2023/07/02 09:22:22;;;;;;;11.07;5.40;;;18.00;99.90;;;;;;7380441;19;20029;-61
2023/07/02 09:24:57;;;;;;;12.77;5.38;;;18.60;99.90;;;;;;7378020;19;20388;-61
2023/07/02 09:27:41;;;;;;;13.60;5.03;;;19.40;99.90;;;;;;7380349;19;20377;-61
2023/07/02 09:30:09;;;;;;;10.60;4.97;;;20.20;99.90;;;;;;7379276;19;20102;-69
2023/07/02 09:32:36;;;;;;;12.50;4.45;;;20.80;99.90;;;;;;7378654;19;20088;-70
2023/07/02 09:35:04;;;;;;;14.20;5.45;;;21.00;99.90;;;;;;7377791;19;20035;-70
2023/07/02 09:37:34;;;;;;;13.52;6.18;;;20.60;99.90;;;;;;7375466;19;20018;-69
2023/07/02 09:40:01;;;;;;;11.38;5.00;;;20.20;99.90;;;;;;7378050;19;20014;-70
2023/07/02 09:42:28;;;;;;;12.40;4.93;;;19.80;99.90;;;;;;7378532;19;20019;-69
2023/07/02 09:44:57;;;;;;;12.27;4.72;;;19.80;99.90;;;;;;7377962;19;20580;-69
2023/07/02 09:47:25;;;;;;;9.70;4.22;;;19.80;99.90;;;;;;7377046;19;20021;-69
2023/07/02 09:49:52;;;;;;;11.00;4.63;;;19.90;99.90;;;;;;7379800;19;20022;-69
2023/07/02 09:52:18;;;;;;;12.10;5.03;;;19.90;99.90;;;;;;7377004;19;20366;-69
2023/07/02 09:54:45;;;;;;;10.65;5.57;;;19.60;99.90;;;;;;7377875;19;20021;-69
2023/07/02 09:57:11;;;;;;;12.38;4.80;;;19.40;99.90;;;;;;7375077;19;20477;-70
2023/07/02 09:59:39;;;;;;;12.15;5.30;;;19.50;99.90;;;;;;7376418;19;20022;-71
2023/07/02 10:02:07;;;;;;;12.15;5.05;;;19.40;99.90;;;;;;7376046;19;20029;-69
2023/07/02 10:04:44;;;;;;;13.85;4.47;;;19.40;99.90;;;;;;7376609;19;20043;-68
2023/07/02 10:07:11;;;;;;;10.95;4.30;;;19.10;99.90;;;;;;7378228;19;20019;-68
2023/07/02 10:09:44;;;;;;;8.98;4.28;;;19.20;99.90;;;;;;7372467;19;20042;-68
2023/07/02 10:12:28;;;;;;;14.52;4.78;;;19.40;99.90;;;;;;7380808;19;20540;-68
2023/07/02 10:14:56;;;;;;;14.10;4.93;;;19.30;99.90;;;;;;7376695;19;20018;-68
2023/07/02 10:17:34;;;;;;;12.02;4.63;;;19.40;99.90;;;;;;7377741;19;20019;-68
2023/07/02 10:20:06;;;;;;;8.98;3.95;;;19.50;99.90;;;;;;7375324;19;20018;-68
2023/07/02 10:22:47;;;;;;;10.75;4.05;;;19.40;99.90;;;;;;7375399;19;20021;-68
2023/07/02 10:25:28;;;;;;;10.98;4.10;;;19.40;99.90;;;;;;7366615;19;20505;-61
2023/07/02 10:27:55;;;;;;;8.40;4.30;;;19.50;99.90;;;;;;7374571;19;20023;-62
2023/07/02 10:30:32;;;;;;;10.13;3.78;;;19.30;99.90;;;;;;7384551;19;20015;-60
2023/07/02 10:33:18;;;;;;;8.85;3.97;;;19.30;99.90;;;;;;7385506;19;20078;-62
2023/07/02 10:35:49;;;;;;;9.80;3.55;;;19.20;99.90;;;;;;7382462;19;20070;-68
2023/07/02 10:38:20;;;;;;;12.73;4.38;;;19.30;99.90;;;;;;7383345;19;20025;-61
2023/07/02 10:40:47;;;;;;;;;;;19.40;99.90;;;;;;7382438;19;20055;-61
2023/07/02 10:43:13;;;;;;;8.20;4.22;;;20.40;99.90;;;;;;7380841;19;20342;-67
2023/07/02 10:45:40;;;;;;;12.88;4.55;;;20.90;99.90;;;;;;7377632;19;20022;-68
2023/07/02 10:48:10;;;;;;;12.13;4.45;;;21.20;99.90;;;;;;7385761;19;20058;-67
2023/07/02 10:50:36;;;;;;;13.43;4.72;;;21.10;99.90;;;;;;7380361;19;20031;-69
2023/07/02 10:53:03;;;;;;;13.77;4.40;;;20.40;99.90;;;;;;7384346;19;20021;-68
2023/07/02 10:55:31;;;;;;;10.57;4.85;;;20.10;99.90;;;;;;7383704;19;20022;-68
2023/07/02 10:58:05;;;;;;;11.15;4.80;;;19.90;99.90;;;;;;7382932;19;20025;-60
2023/07/02 11:00:32;;;;;;;11.73;4.63;;;19.70;99.90;;;;;;7361905;19;20022;-60
2023/07/02 11:02:59;;;;;;;13.18;5.10;;;19.90;99.90;;;;;;7376974;19;20389;-61
2023/07/02 11:05:26;;;;;;;14.07;4.65;;;19.80;99.90;;;;;;7378859;19;20029;-61
2023/07/02 11:07:56;;;;;;;14.23;5.35;;;19.70;99.90;;;;;;7379555;19;20515;-61
2023/07/02 11:10:24;;;;;;;13.55;5.03;;;19.90;99.90;;;;;;7381663;19;20021;-61
2023/07/02 11:12:51;;;;;;;13.48;5.10;;;20.00;99.90;;;;;;7379900;19;20028;-61
2023/07/02 11:15:18;;;;;;;15.07;4.10;;;19.90;99.90;;;;;;7380205;19;20019;-61
2023/07/02 11:17:46;;;;;;;9.10;4.03;;;19.90;99.90;;;;;;7379080;19;20115;-61
2023/07/02 11:20:14;;;;;;;12.70;4.45;;;19.90;99.90;;;;;;7377638;19;20026;-61
2023/07/02 11:22:41;;;;;;;12.20;5.45;;;19.80;99.90;;;;;;7378117;19;20051;-61
2023/07/02 11:25:13;;;;;;;13.85;4.40;;;20.10;99.90;;;;;;7376279;19;20098;-61
2023/07/02 11:27:40;;;;;;;11.52;4.43;;;20.00;99.90;;;;;;7376324;19;20037;-61
2023/07/02 11:30:08;;;;;;;12.15;4.25;;;19.70;99.90;;;;;;7373374;19;20039;-62
2023/07/02 11:32:54;;;;;;;18.50;4.60;;;19.70;99.90;;;;;;7376670;19;20358;-61
2023/07/02 11:35:22;;;;;;;11.27;4.93;;;19.20;99.90;;;;;;7376228;19;20014;-59
2023/07/02 11:37:49;;;;;;;15.65;4.40;;;19.00;99.90;;;;;;7376521;19;20018;-65
2023/07/02 11:40:18;;;;;;;13.98;5.70;;;18.80;99.90;;;;;;7377400;19;20025;-67
2023/07/02 11:42:44;;;;;;;12.18;4.05;;;18.90;99.90;;;;;;7379712;19;20036;-67
2023/07/02 11:45:11;;;;;;;10.90;4.35;;;18.90;99.90;;;;;;7377498;19;20015;-67
2023/07/02 11:47:38;;;;;;;12.02;3.97;;;19.10;99.90;;;;;;7374743;19;20041;-67
2023/07/02 11:50:06;;;;;;;11.07;4.43;;;19.60;99.90;;;;;;7377781;19;20860;-60
2023/07/02 11:52:35;;;;;;;11.18;3.78;;;19.70;99.90;;;;;;7377960;19;20102;-60
2023/07/02 11:55:01;;;;;;;10.43;4.55;;;19.70;99.90;;;;;;7379295;19;20018;-68
2023/07/02 11:57:28;;;;;;;11.02;4.05;;;19.70;99.90;;;;;;7376755;19;20430;-61
2023/07/02 11:59:54;;;;;;;10.52;4.20;;;20.00;99.90;;;;;;7375918;19;20018;-67
2023/07/02 12:02:20;;;;;;;11.60;3.92;;;20.20;99.90;;;;;;7375045;19;20011;-67
2023/07/02 12:04:47;;;;;;;14.30;4.30;;;20.90;99.90;;;;;;7375870;19;20010;-68
2023/07/02 12:07:14;;;;;;;8.80;3.65;;;21.40;99.90;;;;;;7375012;19;20141;-67
2023/07/02 12:09:40;;;;;;;12.10;4.70;;;21.40;99.90;;;;;;7375382;19;20115;-68
2023/07/02 12:12:07;;;;;;;9.13;3.70;;;21.00;99.70;;;;;;7378534;19;20022;-67
2023/07/02 12:14:34;;;;;;;7.85;3.53;;;20.90;99.00;;;;;;7381447;19;20098;-74
2023/07/02 12:17:01;;;;;;;8.20;3.30;;;21.30;99.20;;;;;;7378656;19;20015;-69
2023/07/02 12:19:27;;;;;;;10.30;3.67;;;21.40;99.00;;;;;;7378170;19;20920;-68
2023/07/02 12:21:53;;;;;;;10.18;4.13;;;21.20;98.50;;;;;;7375808;19;20051;-69
2023/07/02 12:24:20;;;;;;;8.38;3.45;;;21.20;97.60;;;;;;7373924;19;20389;-69
2023/07/02 12:26:46;;;;;;;10.07;3.88;;;21.40;97.50;;;;;;7377360;19;20030;-69
2023/07/02 12:29:12;;;;;;;11.98;3.63;;;21.40;97.40;;;;;;7377682;19;20026;-69
2023/07/02 12:31:39;;;;;;;11.20;3.55;;;21.90;96.40;;;;;;7377209;19;20102;-69
2023/07/02 12:34:05;;;;;;;7.53;2.90;;;22.40;95.50;;;;;;7373777;19;20022;-69
2023/07/02 12:36:31;;;;;;;7.50;3.38;;;22.60;93.00;;;;;;7375405;19;20018;-69
2023/07/02 12:38:58;;;;;;;8.10;3.83;;;22.50;92.80;;;;;;7375259;19;20552;-69